sensor_id;sensor_type;location;lat;lon;timestamp;P1;durP1;ratioP1;P2;durP2;ratioP2
53915;SDS011;39827;49.652;18.770;2022-09-09T00:00:22;3.92;;;3.10;;
53915;SDS011;39827;49.652;18.770;2022-09-09T00:11:26;6.35;;;3.10;;
53915;SDS011;39827;49.652;18.770;2022-09-09T00:14:02;4.60;;;3.00;;
53915;SDS011;39827;49.652;18.770;2022-09-09T00:16:32;6.30;;;3.00;;
53915;SDS011;39827;49.652;18.770;2022-09-09T00:22:21;6.40;;;3.00;;
53915;SDS011;39827;49.652;18.770;2022-09-09T00:24:49;4.15;;;2.40;;
53915;SDS011;39827;49.652;18.770;2022-09-09T00:30:13;4.10;;;2.53;;
53915;SDS011;39827;49.652;18.770;2022-09-09T00:32:39;8.38;;;3.10;;
53915;SDS011;39827;49.652;18.770;2022-09-09T00:35:22;7.05;;;2.95;;
53915;SDS011;39827;49.652;18.770;2022-09-09T00:37:55;5.22;;;2.50;;
53915;SDS011;39827;49.652;18.770;2022-09-09T00:40:35;4.15;;;2.60;;
53915;SDS011;39827;49.652;18.770;2022-09-09T00:54:28;3.10;;;2.63;;
53915;SDS011;39827;49.652;18.770;2022-09-09T01:02:28;3.75;;;2.53;;
53915;SDS011;39827;49.652;18.770;2022-09-09T01:05:02;3.50;;;2.28;;
53915;SDS011;39827;49.652;18.770;2022-09-09T01:07:37;2.67;;;2.47;;
53915;SDS011;39827;49.652;18.770;2022-09-09T01:10:07;3.08;;;2.20;;
53915;SDS011;39827;49.652;18.770;2022-09-09T01:12:58;2.70;;;2.00;;
53915;SDS011;39827;49.652;18.770;2022-09-09T01:15:30;8.30;;;3.00;;
53915;SDS011;39827;49.652;18.770;2022-09-09T01:17:59;3.38;;;2.13;;
53915;SDS011;39827;49.652;18.770;2022-09-09T01:20:37;3.53;;;2.78;;
53915;SDS011;39827;49.652;18.770;2022-09-09T01:26:11;6.72;;;2.40;;
53915;SDS011;39827;49.652;18.770;2022-09-09T01:28:58;3.38;;;2.10;;
53915;SDS011;39827;49.652;18.770;2022-09-09T01:31:28;2.35;;;2.13;;
53915;SDS011;39827;49.652;18.770;2022-09-09T01:33:57;5.18;;;2.58;;
53915;SDS011;39827;49.652;18.770;2022-09-09T01:36:31;7.72;;;2.15;;
53915;SDS011;39827;49.652;18.770;2022-09-09T01:39:02;6.43;;;2.42;;
53915;SDS011;39827;49.652;18.770;2022-09-09T01:41:28;3.63;;;2.70;;
53915;SDS011;39827;49.652;18.770;2022-09-09T01:43:54;9.95;;;2.40;;
53915;SDS011;39827;49.652;18.770;2022-09-09T01:46:21;2.60;;;2.38;;
53915;SDS011;39827;49.652;18.770;2022-09-09T01:48:48;4.75;;;2.67;;
53915;SDS011;39827;49.652;18.770;2022-09-09T01:51:15;4.60;;;2.83;;
53915;SDS011;39827;49.652;18.770;2022-09-09T01:53:40;7.75;;;3.22;;
53915;SDS011;39827;49.652;18.770;2022-09-09T02:07:06;4.47;;;2.97;;
53915;SDS011;39827;49.652;18.770;2022-09-09T02:09:44;6.82;;;2.88;;
53915;SDS011;39827;49.652;18.770;2022-09-09T02:12:16;2.70;;;2.50;;
53915;SDS011;39827;49.652;18.770;2022-09-09T02:14:50;7.70;;;2.85;;
53915;SDS011;39827;49.652;18.770;2022-09-09T02:17:22;5.40;;;2.70;;
53915;SDS011;39827;49.652;18.770;2022-09-09T02:19:59;4.63;;;2.80;;
53915;SDS011;39827;49.652;18.770;2022-09-09T02:22:35;13.02;;;3.00;;
53915;SDS011;39827;49.652;18.770;2022-09-09T02:25:04;4.60;;;2.65;;
53915;SDS011;39827;49.652;18.770;2022-09-09T02:27:33;6.68;;;3.00;;
53915;SDS011;39827;49.652;18.770;2022-09-09T02:29:59;8.55;;;3.25;;
53915;SDS011;39827;49.652;18.770;2022-09-09T02:32:27;4.70;;;2.65;;
53915;SDS011;39827;49.652;18.770;2022-09-09T02:34:57;7.22;;;2.72;;
53915;SDS011;39827;49.652;18.770;2022-09-09T02:37:27;5.70;;;2.95;;
53915;SDS011;39827;49.652;18.770;2022-09-09T02:40:00;3.47;;;3.17;;
53915;SDS011;39827;49.652;18.770;2022-09-09T02:42:27;12.82;;;3.75;;
53915;SDS011;39827;49.652;18.770;2022-09-09T02:44:53;7.07;;;3.20;;
53915;SDS011;39827;49.652;18.770;2022-09-09T02:49:57;4.25;;;2.80;;
53915;SDS011;39827;49.652;18.770;2022-09-09T02:52:47;3.97;;;2.90;;
53915;SDS011;39827;49.652;18.770;2022-09-09T02:58:12;6.20;;;3.20;;
53915;SDS011;39827;49.652;18.770;2022-09-09T03:00:44;6.45;;;3.35;;
53915;SDS011;39827;49.652;18.770;2022-09-09T03:03:11;3.50;;;3.20;;
53915;SDS011;39827;49.652;18.770;2022-09-09T03:05:37;10.57;;;3.58;;
53915;SDS011;39827;49.652;18.770;2022-09-09T03:08:03;13.48;;;3.55;;
53915;SDS011;39827;49.652;18.770;2022-09-09T03:10:32;10.48;;;4.40;;
53915;SDS011;39827;49.652;18.770;2022-09-09T03:12:59;8.20;;;3.30;;
53915;SDS011;39827;49.652;18.770;2022-09-09T03:15:25;7.68;;;3.50;;
53915;SDS011;39827;49.652;18.770;2022-09-09T03:17:54;7.47;;;3.50;;
53915;SDS011;39827;49.652;18.770;2022-09-09T03:20:20;5.78;;;3.70;;
53915;SDS011;39827;49.652;18.770;2022-09-09T03:22:45;3.85;;;3.30;;
53915;SDS011;39827;49.652;18.770;2022-09-09T03:25:10;3.72;;;3.13;;
53915;SDS011;39827;49.652;18.770;2022-09-09T03:27:36;6.20;;;3.63;;
53915;SDS011;39827;49.652;18.770;2022-09-09T03:30:01;6.00;;;3.75;;
53915;SDS011;39827;49.652;18.770;2022-09-09T03:32:29;4.30;;;3.60;;
53915;SDS011;39827;49.652;18.770;2022-09-09T03:34:55;5.95;;;3.80;;
53915;SDS011;39827;49.652;18.770;2022-09-09T03:37:21;3.97;;;3.58;;
53915;SDS011;39827;49.652;18.770;2022-09-09T03:39:47;3.45;;;3.15;;
53915;SDS011;39827;49.652;18.770;2022-09-09T03:42:13;5.03;;;3.80;;
53915;SDS011;39827;49.652;18.770;2022-09-09T03:44:39;3.78;;;3.42;;
53915;SDS011;39827;49.652;18.770;2022-09-09T03:47:06;7.72;;;3.80;;
53915;SDS011;39827;49.652;18.770;2022-09-09T03:49:32;12.73;;;3.10;;
53915;SDS011;39827;49.652;18.770;2022-09-09T03:51:57;10.40;;;3.80;;
53915;SDS011;39827;49.652;18.770;2022-09-09T03:54:24;4.18;;;3.40;;
53915;SDS011;39827;49.652;18.770;2022-09-09T03:56:49;11.23;;;4.03;;
53915;SDS011;39827;49.652;18.770;2022-09-09T03:59:15;6.78;;;3.63;;
53915;SDS011;39827;49.652;18.770;2022-09-09T04:01:40;4.57;;;3.70;;
53915;SDS011;39827;49.652;18.770;2022-09-09T04:04:06;5.38;;;3.17;;
53915;SDS011;39827;49.652;18.770;2022-09-09T04:06:32;8.43;;;3.58;;
53915;SDS011;39827;49.652;18.770;2022-09-09T04:08:57;9.10;;;3.70;;
53915;SDS011;39827;49.652;18.770;2022-09-09T04:11:23;4.40;;;3.67;;
53915;SDS011;39827;49.652;18.770;2022-09-09T04:13:48;10.20;;;3.80;;
53915;SDS011;39827;49.652;18.770;2022-09-09T04:16:14;10.13;;;3.72;;
53915;SDS011;39827;49.652;18.770;2022-09-09T04:18:39;6.82;;;4.00;;
53915;SDS011;39827;49.652;18.770;2022-09-09T04:21:05;6.75;;;3.53;;
53915;SDS011;39827;49.652;18.770;2022-09-09T04:23:32;9.00;;;3.72;;
53915;SDS011;39827;49.652;18.770;2022-09-09T04:25:58;6.35;;;4.30;;
53915;SDS011;39827;49.652;18.770;2022-09-09T04:28:26;6.00;;;4.00;;
53915;SDS011;39827;49.652;18.770;2022-09-09T04:30:54;8.05;;;4.75;;
53915;SDS011;39827;49.652;18.770;2022-09-09T04:33:20;8.23;;;4.18;;
53915;SDS011;39827;49.652;18.770;2022-09-09T04:35:46;5.68;;;4.20;;
53915;SDS011;39827;49.652;18.770;2022-09-09T04:38:13;6.20;;;3.80;;
53915;SDS011;39827;49.652;18.770;2022-09-09T04:40:42;6.03;;;3.83;;
53915;SDS011;39827;49.652;18.770;2022-09-09T04:43:16;5.97;;;3.80;;
53915;SDS011;39827;49.652;18.770;2022-09-09T04:45:44;5.05;;;3.53;;
53915;SDS011;39827;49.652;18.770;2022-09-09T04:48:12;4.93;;;3.60;;
53915;SDS011;39827;49.652;18.770;2022-09-09T04:50:37;5.25;;;3.58;;
53915;SDS011;39827;49.652;18.770;2022-09-09T04:53:03;7.85;;;3.80;;
53915;SDS011;39827;49.652;18.770;2022-09-09T04:55:30;8.05;;;3.38;;
53915;SDS011;39827;49.652;18.770;2022-09-09T04:57:56;6.35;;;3.50;;
53915;SDS011;39827;49.652;18.770;2022-09-09T05:00:22;7.43;;;3.20;;
53915;SDS011;39827;49.652;18.770;2022-09-09T05:02:48;3.25;;;2.95;;
53915;SDS011;39827;49.652;18.770;2022-09-09T05:05:14;4.90;;;3.10;;
53915;SDS011;39827;49.652;18.770;2022-09-09T05:07:40;6.72;;;3.50;;
53915;SDS011;39827;49.652;18.770;2022-09-09T05:10:05;8.48;;;3.45;;
53915;SDS011;39827;49.652;18.770;2022-09-09T05:12:31;5.28;;;3.38;;
53915;SDS011;39827;49.652;18.770;2022-09-09T05:14:56;5.47;;;3.53;;
53915;SDS011;39827;49.652;18.770;2022-09-09T05:17:22;4.20;;;3.60;;
53915;SDS011;39827;49.652;18.770;2022-09-09T05:19:48;7.85;;;3.60;;
53915;SDS011;39827;49.652;18.770;2022-09-09T05:22:17;3.70;;;3.00;;
53915;SDS011;39827;49.652;18.770;2022-09-09T05:24:45;5.75;;;2.90;;
53915;SDS011;39827;49.652;18.770;2022-09-09T05:27:11;3.35;;;3.05;;
53915;SDS011;39827;49.652;18.770;2022-09-09T05:29:37;3.83;;;2.80;;
53915;SDS011;39827;49.652;18.770;2022-09-09T05:32:03;7.20;;;3.20;;
53915;SDS011;39827;49.652;18.770;2022-09-09T05:34:29;3.17;;;2.38;;
53915;SDS011;39827;49.652;18.770;2022-09-09T05:36:54;3.80;;;2.53;;
53915;SDS011;39827;49.652;18.770;2022-09-09T05:39:20;4.97;;;2.97;;
53915;SDS011;39827;49.652;18.770;2022-09-09T05:41:45;5.43;;;2.83;;
53915;SDS011;39827;49.652;18.770;2022-09-09T05:44:10;5.15;;;2.83;;
53915;SDS011;39827;49.652;18.770;2022-09-09T05:46:36;5.20;;;2.70;;
53915;SDS011;39827;49.652;18.770;2022-09-09T05:49:02;4.72;;;2.58;;
53915;SDS011;39827;49.652;18.770;2022-09-09T05:51:28;3.47;;;2.60;;
53915;SDS011;39827;49.652;18.770;2022-09-09T05:53:57;4.93;;;2.55;;
53915;SDS011;39827;49.652;18.770;2022-09-09T05:56:26;2.97;;;2.70;;
53915;SDS011;39827;49.652;18.770;2022-09-09T05:58:53;6.95;;;3.10;;
53915;SDS011;39827;49.652;18.770;2022-09-09T06:01:21;3.65;;;2.47;;
53915;SDS011;39827;49.652;18.770;2022-09-09T06:03:48;5.18;;;2.70;;
53915;SDS011;39827;49.652;18.770;2022-09-09T06:06:25;4.57;;;2.53;;
53915;SDS011;39827;49.652;18.770;2022-09-09T06:08:55;2.92;;;2.63;;
53915;SDS011;39827;49.652;18.770;2022-09-09T06:11:25;9.77;;;2.88;;
53915;SDS011;39827;49.652;18.770;2022-09-09T06:13:56;3.03;;;2.30;;
53915;SDS011;39827;49.652;18.770;2022-09-09T06:16:22;7.47;;;2.47;;
53915;SDS011;39827;49.652;18.770;2022-09-09T06:18:49;3.40;;;2.47;;
53915;SDS011;39827;49.652;18.770;2022-09-09T06:21:19;6.45;;;2.35;;
53915;SDS011;39827;49.652;18.770;2022-09-09T06:23:47;4.85;;;2.70;;
53915;SDS011;39827;49.652;18.770;2022-09-09T06:26:16;3.22;;;2.17;;
53915;SDS011;39827;49.652;18.770;2022-09-09T06:28:43;3.47;;;2.33;;
53915;SDS011;39827;49.652;18.770;2022-09-09T06:31:10;2.47;;;2.28;;
53915;SDS011;39827;49.652;18.770;2022-09-09T06:33:37;4.78;;;2.28;;
53915;SDS011;39827;49.652;18.770;2022-09-09T06:36:10;3.90;;;1.80;;
53915;SDS011;39827;49.652;18.770;2022-09-09T06:38:37;4.05;;;1.90;;
53915;SDS011;39827;49.652;18.770;2022-09-09T06:41:03;3.08;;;1.70;;
53915;SDS011;39827;49.652;18.770;2022-09-09T06:43:30;4.22;;;1.77;;
53915;SDS011;39827;49.652;18.770;2022-09-09T06:45:56;3.70;;;1.70;;
53915;SDS011;39827;49.652;18.770;2022-09-09T06:48:23;1.95;;;1.65;;
53915;SDS011;39827;49.652;18.770;2022-09-09T06:50:51;2.22;;;1.48;;
53915;SDS011;39827;49.652;18.770;2022-09-09T06:53:27;1.55;;;1.33;;
53915;SDS011;39827;49.652;18.770;2022-09-09T06:55:53;2.53;;;1.70;;
53915;SDS011;39827;49.652;18.770;2022-09-09T06:58:19;2.75;;;1.45;;
53915;SDS011;39827;49.652;18.770;2022-09-09T07:00:46;2.17;;;1.17;;
53915;SDS011;39827;49.652;18.770;2022-09-09T07:03:12;1.50;;;1.33;;
53915;SDS011;39827;49.652;18.770;2022-09-09T07:05:38;3.95;;;1.88;;
53915;SDS011;39827;49.652;18.770;2022-09-09T07:08:04;3.85;;;1.42;;
53915;SDS011;39827;49.652;18.770;2022-09-09T07:10:30;4.25;;;1.40;;
53915;SDS011;39827;49.652;18.770;2022-09-09T07:12:55;2.58;;;1.20;;
53915;SDS011;39827;49.652;18.770;2022-09-09T07:15:21;2.13;;;1.30;;
53915;SDS011;39827;49.652;18.770;2022-09-09T07:17:47;2.92;;;1.30;;
53915;SDS011;39827;49.652;18.770;2022-09-09T07:20:13;3.08;;;1.50;;
53915;SDS011;39827;49.652;18.770;2022-09-09T07:22:39;3.17;;;1.13;;
53915;SDS011;39827;49.652;18.770;2022-09-09T07:25:05;7.55;;;1.25;;
53915;SDS011;39827;49.652;18.770;2022-09-09T07:27:31;2.55;;;1.20;;
53915;SDS011;39827;49.652;18.770;2022-09-09T07:29:57;1.40;;;1.20;;
53915;SDS011;39827;49.652;18.770;2022-09-09T07:32:22;3.50;;;1.42;;
53915;SDS011;39827;49.652;18.770;2022-09-09T07:34:48;3.60;;;1.40;;
53915;SDS011;39827;49.652;18.770;2022-09-09T07:37:15;5.50;;;1.30;;
53915;SDS011;39827;49.652;18.770;2022-09-09T07:39:40;2.03;;;1.50;;
53915;SDS011;39827;49.652;18.770;2022-09-09T07:42:07;4.97;;;1.45;;
53915;SDS011;39827;49.652;18.770;2022-09-09T07:44:33;2.90;;;1.50;;
53915;SDS011;39827;49.652;18.770;2022-09-09T07:47:00;3.58;;;1.30;;
53915;SDS011;39827;49.652;18.770;2022-09-09T07:49:26;2.78;;;1.10;;
53915;SDS011;39827;49.652;18.770;2022-09-09T07:51:51;2.00;;;1.23;;
53915;SDS011;39827;49.652;18.770;2022-09-09T07:54:17;1.40;;;1.30;;
53915;SDS011;39827;49.652;18.770;2022-09-09T07:56:45;3.28;;;1.20;;
53915;SDS011;39827;49.652;18.770;2022-09-09T07:59:12;3.78;;;1.10;;
53915;SDS011;39827;49.652;18.770;2022-09-09T08:01:48;2.30;;;1.02;;
53915;SDS011;39827;49.652;18.770;2022-09-09T08:04:18;1.27;;;0.88;;
53915;SDS011;39827;49.652;18.770;2022-09-09T08:06:47;1.55;;;0.80;;
53915;SDS011;39827;49.652;18.770;2022-09-09T08:09:15;2.17;;;0.80;;
53915;SDS011;39827;49.652;18.770;2022-09-09T08:11:40;3.10;;;0.70;;
53915;SDS011;39827;49.652;18.770;2022-09-09T08:14:07;2.15;;;0.90;;
53915;SDS011;39827;49.652;18.770;2022-09-09T08:16:35;0.88;;;0.75;;
53915;SDS011;39827;49.652;18.770;2022-09-09T08:19:02;2.33;;;0.82;;
53915;SDS011;39827;49.652;18.770;2022-09-09T08:21:29;1.80;;;0.90;;
53915;SDS011;39827;49.652;18.770;2022-09-09T08:23:57;3.63;;;1.00;;
53915;SDS011;39827;49.652;18.770;2022-09-09T08:26:25;1.40;;;1.00;;
53915;SDS011;39827;49.652;18.770;2022-09-09T08:28:53;2.33;;;0.90;;
53915;SDS011;39827;49.652;18.770;2022-09-09T08:31:24;2.30;;;0.90;;
53915;SDS011;39827;49.652;18.770;2022-09-09T08:33:58;1.73;;;0.80;;
53915;SDS011;39827;49.652;18.770;2022-09-09T08:36:25;0.90;;;0.80;;
53915;SDS011;39827;49.652;18.770;2022-09-09T08:38:55;0.88;;;0.60;;
53915;SDS011;39827;49.652;18.770;2022-09-09T08:51:42;1.15;;;0.63;;
53915;SDS011;39827;49.652;18.770;2022-09-09T08:54:08;1.90;;;0.90;;
53915;SDS011;39827;49.652;18.770;2022-09-09T08:56:35;1.02;;;0.68;;
53915;SDS011;39827;49.652;18.770;2022-09-09T08:59:01;1.67;;;0.60;;
53915;SDS011;39827;49.652;18.770;2022-09-09T09:04:22;0.98;;;0.55;;
53915;SDS011;39827;49.652;18.770;2022-09-09T09:10:45;1.35;;;0.70;;
53915;SDS011;39827;49.652;18.770;2022-09-09T09:12:55;1.45;;;0.70;;
53915;SDS011;39827;49.652;18.770;2022-09-09T09:15:25;0.70;;;0.70;;
53915;SDS011;39827;49.652;18.770;2022-09-09T09:17:55;1.08;;;0.70;;
53915;SDS011;39827;49.652;18.770;2022-09-09T09:20:29;1.00;;;0.60;;
53915;SDS011;39827;49.652;18.770;2022-09-09T09:23:06;0.82;;;0.40;;
53915;SDS011;39827;49.652;18.770;2022-09-09T09:25:41;0.65;;;0.40;;
53915;SDS011;39827;49.652;18.770;2022-09-09T09:28:20;2.17;;;0.40;;
53915;SDS011;39827;49.652;18.770;2022-09-09T09:30:51;0.70;;;0.50;;
53915;SDS011;39827;49.652;18.770;2022-09-09T09:35:45;0.47;;;0.40;;
53915;SDS011;39827;49.652;18.770;2022-09-09T09:38:32;1.63;;;0.60;;
53915;SDS011;39827;49.652;18.770;2022-09-09T09:40:57;0.50;;;0.50;;
53915;SDS011;39827;49.652;18.770;2022-09-09T09:43:25;1.67;;;0.57;;
53915;SDS011;39827;49.652;18.770;2022-09-09T09:46:04;1.13;;;0.50;;
53915;SDS011;39827;49.652;18.770;2022-09-09T09:48:30;0.70;;;0.40;;
53915;SDS011;39827;49.652;18.770;2022-09-09T09:53:34;1.27;;;0.50;;
53915;SDS011;39827;49.652;18.770;2022-09-09T09:56:03;2.67;;;0.70;;
53915;SDS011;39827;49.652;18.770;2022-09-09T09:58:32;0.77;;;0.65;;
53915;SDS011;39827;49.652;18.770;2022-09-09T10:01:02;2.50;;;0.60;;
53915;SDS011;39827;49.652;18.770;2022-09-09T10:03:31;2.53;;;0.60;;
53915;SDS011;39827;49.652;18.770;2022-09-09T10:06:02;0.70;;;0.47;;
53915;SDS011;39827;49.652;18.770;2022-09-09T10:08:28;1.38;;;0.60;;
53915;SDS011;39827;49.652;18.770;2022-09-09T10:18:58;2.88;;;0.60;;
53915;SDS011;39827;49.652;18.770;2022-09-09T10:24:09;0.82;;;0.52;;
53915;SDS011;39827;49.652;18.770;2022-09-09T10:33:13;0.57;;;0.50;;
53915;SDS011;39827;49.652;18.770;2022-09-09T10:36:02;2.20;;;0.65;;
53915;SDS011;39827;49.652;18.770;2022-09-09T10:39:15;0.95;;;0.60;;
53915;SDS011;39827;49.652;18.770;2022-09-09T10:44:31;0.50;;;0.40;;
53915;SDS011;39827;49.652;18.770;2022-09-09T10:56:12;0.57;;;0.40;;
53915;SDS011;39827;49.652;18.770;2022-09-09T11:01:13;1.13;;;0.65;;
53915;SDS011;39827;49.652;18.770;2022-09-09T11:03:43;1.63;;;0.70;;
53915;SDS011;39827;49.652;18.770;2022-09-09T11:06:16;1.50;;;0.82;;
53915;SDS011;39827;49.652;18.770;2022-09-09T11:08:46;4.47;;;0.95;;
53915;SDS011;39827;49.652;18.770;2022-09-09T11:11:25;3.22;;;0.80;;
53915;SDS011;39827;49.652;18.770;2022-09-09T11:13:59;1.85;;;0.85;;
53915;SDS011;39827;49.652;18.770;2022-09-09T11:16:33;1.67;;;0.70;;
53915;SDS011;39827;49.652;18.770;2022-09-09T11:19:18;2.67;;;1.00;;
53915;SDS011;39827;49.652;18.770;2022-09-09T11:21:49;3.28;;;0.90;;
53915;SDS011;39827;49.652;18.770;2022-09-09T11:27:11;1.48;;;0.80;;
53915;SDS011;39827;49.652;18.770;2022-09-09T11:40:24;3.72;;;1.17;;
53915;SDS011;39827;49.652;18.770;2022-09-09T11:43:10;3.17;;;0.93;;
53915;SDS011;39827;49.652;18.770;2022-09-09T11:45:37;2.88;;;0.98;;
53915;SDS011;39827;49.652;18.770;2022-09-09T11:48:05;1.70;;;0.90;;
53915;SDS011;39827;49.652;18.770;2022-09-09T11:50:46;7.13;;;1.08;;
53915;SDS011;39827;49.652;18.770;2022-09-09T11:53:34;1.60;;;0.85;;
53915;SDS011;39827;49.652;18.770;2022-09-09T11:56:01;4.35;;;1.08;;
53915;SDS011;39827;49.652;18.770;2022-09-09T11:58:32;2.40;;;0.90;;
53915;SDS011;39827;49.652;18.770;2022-09-09T12:01:12;1.73;;;0.80;;
53915;SDS011;39827;49.652;18.770;2022-09-09T12:03:48;1.77;;;0.80;;
53915;SDS011;39827;49.652;18.770;2022-09-09T12:06:30;3.45;;;0.70;;
53915;SDS011;39827;49.652;18.770;2022-09-09T12:09:43;2.47;;;0.75;;
53915;SDS011;39827;49.652;18.770;2022-09-09T12:11:49;2.80;;;0.80;;
53915;SDS011;39827;49.652;18.770;2022-09-09T12:14:19;1.58;;;0.90;;
53915;SDS011;39827;49.652;18.770;2022-09-09T12:16:46;3.08;;;1.02;;
53915;SDS011;39827;49.652;18.770;2022-09-09T12:21:44;5.47;;;1.33;;
53915;SDS011;39827;49.652;18.770;2022-09-09T12:25:18;2.60;;;1.00;;
53915;SDS011;39827;49.652;18.770;2022-09-09T12:27:20;5.78;;;0.90;;
53915;SDS011;39827;49.652;18.770;2022-09-09T12:29:54;2.33;;;0.98;;
53915;SDS011;39827;49.652;18.770;2022-09-09T12:32:27;2.38;;;0.88;;
53915;SDS011;39827;49.652;18.770;2022-09-09T12:37:38;2.80;;;1.00;;
53915;SDS011;39827;49.652;18.770;2022-09-09T12:40:06;2.30;;;0.90;;
53915;SDS011;39827;49.652;18.770;2022-09-09T12:42:45;1.95;;;0.80;;
53915;SDS011;39827;49.652;18.770;2022-09-09T12:45:18;1.27;;;0.80;;
53915;SDS011;39827;49.652;18.770;2022-09-09T12:47:46;1.73;;;0.80;;
53915;SDS011;39827;49.652;18.770;2022-09-09T12:50:21;0.95;;;0.60;;
53915;SDS011;39827;49.652;18.770;2022-09-09T12:52:51;2.85;;;0.90;;
53915;SDS011;39827;49.652;18.770;2022-09-09T12:55:23;4.72;;;1.00;;
53915;SDS011;39827;49.652;18.770;2022-09-09T12:57:52;2.25;;;0.90;;
53915;SDS011;39827;49.652;18.770;2022-09-09T13:00:22;4.00;;;0.70;;
53915;SDS011;39827;49.652;18.770;2022-09-09T13:02:53;2.40;;;0.80;;
53915;SDS011;39827;49.652;18.770;2022-09-09T13:05:24;3.67;;;0.90;;
53915;SDS011;39827;49.652;18.770;2022-09-09T13:07:51;2.00;;;1.00;;
53915;SDS011;39827;49.652;18.770;2022-09-09T13:10:27;2.35;;;0.70;;
53915;SDS011;39827;49.652;18.770;2022-09-09T13:12:54;3.72;;;0.90;;
53915;SDS011;39827;49.652;18.770;2022-09-09T13:15:23;2.15;;;0.90;;
53915;SDS011;39827;49.652;18.770;2022-09-09T13:17:56;3.53;;;1.08;;
53915;SDS011;39827;49.652;18.770;2022-09-09T13:20:26;4.10;;;1.30;;
53915;SDS011;39827;49.652;18.770;2022-09-09T13:22:52;5.75;;;1.40;;
53915;SDS011;39827;49.652;18.770;2022-09-09T13:25:20;2.40;;;1.27;;
53915;SDS011;39827;49.652;18.770;2022-09-09T13:27:53;3.30;;;1.23;;
53915;SDS011;39827;49.652;18.770;2022-09-09T13:30:42;2.75;;;1.25;;
53915;SDS011;39827;49.652;18.770;2022-09-09T13:35:50;5.78;;;1.27;;
53915;SDS011;39827;49.652;18.770;2022-09-09T13:40:57;1.80;;;1.10;;
53915;SDS011;39827;49.652;18.770;2022-09-09T13:43:27;4.65;;;1.27;;
53915;SDS011;39827;49.652;18.770;2022-09-09T13:45:57;1.83;;;1.27;;
53915;SDS011;39827;49.652;18.770;2022-09-09T13:48:25;3.03;;;1.35;;
53915;SDS011;39827;49.652;18.770;2022-09-09T13:50:54;4.13;;;1.02;;
53915;SDS011;39827;49.652;18.770;2022-09-09T13:53:23;2.22;;;0.90;;
53915;SDS011;39827;49.652;18.770;2022-09-09T13:55:49;3.08;;;1.20;;
53915;SDS011;39827;49.652;18.770;2022-09-09T13:58:16;3.22;;;1.27;;
53915;SDS011;39827;49.652;18.770;2022-09-09T14:00:44;4.40;;;1.38;;
53915;SDS011;39827;49.652;18.770;2022-09-09T14:03:09;2.42;;;1.00;;
53915;SDS011;39827;49.652;18.770;2022-09-09T14:05:35;2.75;;;1.40;;
53915;SDS011;39827;49.652;18.770;2022-09-09T14:08:00;2.67;;;1.17;;
53915;SDS011;39827;49.652;18.770;2022-09-09T14:10:29;4.38;;;1.25;;
53915;SDS011;39827;49.652;18.770;2022-09-09T14:12:55;3.22;;;1.15;;
53915;SDS011;39827;49.652;18.770;2022-09-09T14:15:21;1.60;;;0.70;;
53915;SDS011;39827;49.652;18.770;2022-09-09T14:17:46;2.17;;;0.90;;
53915;SDS011;39827;49.652;18.770;2022-09-09T14:20:13;1.77;;;1.00;;
53915;SDS011;39827;49.652;18.770;2022-09-09T14:22:40;3.42;;;1.10;;
53915;SDS011;39827;49.652;18.770;2022-09-09T14:25:06;1.67;;;1.08;;
53915;SDS011;39827;49.652;18.770;2022-09-09T14:27:32;5.15;;;1.00;;
53915;SDS011;39827;49.652;18.770;2022-09-09T14:29:57;2.88;;;0.93;;
53915;SDS011;39827;49.652;18.770;2022-09-09T14:32:24;5.38;;;1.00;;
53915;SDS011;39827;49.652;18.770;2022-09-09T14:34:50;7.03;;;0.98;;
53915;SDS011;39827;49.652;18.770;2022-09-09T14:37:16;1.50;;;1.00;;
53915;SDS011;39827;49.652;18.770;2022-09-09T14:39:42;1.80;;;1.00;;
53915;SDS011;39827;49.652;18.770;2022-09-09T14:42:12;2.80;;;1.00;;
53915;SDS011;39827;49.652;18.770;2022-09-09T14:44:37;6.97;;;1.08;;
53915;SDS011;39827;49.652;18.770;2022-09-09T14:47:03;1.23;;;0.95;;
53915;SDS011;39827;49.652;18.770;2022-09-09T14:49:29;3.08;;;1.27;;
53915;SDS011;39827;49.652;18.770;2022-09-09T14:51:55;4.75;;;1.20;;
53915;SDS011;39827;49.652;18.770;2022-09-09T14:54:20;9.52;;;1.67;;
53915;SDS011;39827;49.652;18.770;2022-09-09T14:56:48;6.43;;;1.23;;
53915;SDS011;39827;49.652;18.770;2022-09-09T14:59:14;2.33;;;1.20;;
53915;SDS011;39827;49.652;18.770;2022-09-09T15:01:39;5.13;;;1.17;;
53915;SDS011;39827;49.652;18.770;2022-09-09T15:04:05;6.55;;;1.40;;
53915;SDS011;39827;49.652;18.770;2022-09-09T15:06:31;2.35;;;1.42;;
53915;SDS011;39827;49.652;18.770;2022-09-09T15:08:59;3.30;;;1.40;;
53915;SDS011;39827;49.652;18.770;2022-09-09T15:11:30;3.88;;;1.85;;
53915;SDS011;39827;49.652;18.770;2022-09-09T15:13:58;2.42;;;1.30;;
53915;SDS011;39827;49.652;18.770;2022-09-09T15:16:24;4.53;;;1.50;;
53915;SDS011;39827;49.652;18.770;2022-09-09T15:18:52;3.65;;;1.50;;
53915;SDS011;39827;49.652;18.770;2022-09-09T15:21:20;4.82;;;1.65;;
53915;SDS011;39827;49.652;18.770;2022-09-09T15:23:47;3.50;;;1.50;;
53915;SDS011;39827;49.652;18.770;2022-09-09T15:26:13;1.88;;;1.10;;
53915;SDS011;39827;49.652;18.770;2022-09-09T15:28:42;6.35;;;1.40;;
53915;SDS011;39827;49.652;18.770;2022-09-09T15:33:34;2.08;;;1.20;;
53915;SDS011;39827;49.652;18.770;2022-09-09T15:36:01;5.45;;;1.40;;
53915;SDS011;39827;49.652;18.770;2022-09-09T15:38:57;3.35;;;1.45;;
53915;SDS011;39827;49.652;18.770;2022-09-09T15:41:23;7.13;;;1.60;;
53915;SDS011;39827;49.652;18.770;2022-09-09T15:43:50;4.22;;;1.60;;
53915;SDS011;39827;49.652;18.770;2022-09-09T15:48:43;7.50;;;3.47;;
53915;SDS011;39827;49.652;18.770;2022-09-09T15:51:09;4.78;;;2.25;;
53915;SDS011;39827;49.652;18.770;2022-09-09T15:53:39;5.10;;;2.00;;
53915;SDS011;39827;49.652;18.770;2022-09-09T15:56:05;3.80;;;1.63;;
53915;SDS011;39827;49.652;18.770;2022-09-09T15:58:34;4.25;;;1.90;;
53915;SDS011;39827;49.652;18.770;2022-09-09T16:01:04;3.83;;;2.45;;
53915;SDS011;39827;49.652;18.770;2022-09-09T16:03:35;4.97;;;2.35;;
53915;SDS011;39827;49.652;18.770;2022-09-09T16:06:02;7.30;;;4.25;;
53915;SDS011;39827;49.652;18.770;2022-09-09T16:08:36;10.80;;;6.30;;
53915;SDS011;39827;49.652;18.770;2022-09-09T16:11:10;7.13;;;4.68;;
53915;SDS011;39827;49.652;18.770;2022-09-09T16:13:41;7.38;;;3.90;;
53915;SDS011;39827;49.652;18.770;2022-09-09T16:16:09;6.03;;;3.20;;
53915;SDS011;39827;49.652;18.770;2022-09-09T16:18:38;10.18;;;3.53;;
53915;SDS011;39827;49.652;18.770;2022-09-09T16:21:04;6.80;;;3.53;;
53915;SDS011;39827;49.652;18.770;2022-09-09T16:23:31;9.43;;;4.07;;
53915;SDS011;39827;49.652;18.770;2022-09-09T16:25:57;6.82;;;4.38;;
53915;SDS011;39827;49.652;18.770;2022-09-09T16:28:23;7.25;;;4.80;;
53915;SDS011;39827;49.652;18.770;2022-09-09T16:30:49;8.70;;;4.90;;
53915;SDS011;39827;49.652;18.770;2022-09-09T16:33:14;12.30;;;6.53;;
53915;SDS011;39827;49.652;18.770;2022-09-09T16:35:41;23.83;;;9.95;;
53915;SDS011;39827;49.652;18.770;2022-09-09T16:38:06;14.93;;;6.95;;
53915;SDS011;39827;49.652;18.770;2022-09-09T16:40:35;12.70;;;4.93;;
53915;SDS011;39827;49.652;18.770;2022-09-09T16:43:05;14.25;;;5.63;;
53915;SDS011;39827;49.652;18.770;2022-09-09T16:45:31;10.57;;;5.50;;
53915;SDS011;39827;49.652;18.770;2022-09-09T16:47:57;12.27;;;5.38;;
53915;SDS011;39827;49.652;18.770;2022-09-09T16:50:23;13.93;;;5.72;;
53915;SDS011;39827;49.652;18.770;2022-09-09T16:52:48;13.75;;;5.38;;
53915;SDS011;39827;49.652;18.770;2022-09-09T16:55:14;11.43;;;6.50;;
53915;SDS011;39827;49.652;18.770;2022-09-09T16:57:39;14.38;;;8.23;;